createdAt,value
2022-10-07T06:15:08.422Z,1018.39
2022-10-07T06:25:08.506Z,1018.30
2022-10-07T06:35:08.495Z,1018.19
2022-10-07T06:45:08.457Z,1018.30
2022-10-07T06:55:08.439Z,1018.32
2022-10-07T07:05:08.764Z,1018.21
2022-10-07T07:15:08.596Z,1018.33
2022-10-07T07:25:08.587Z,1018.21
2022-10-07T07:35:08.655Z,1018.01
2022-10-07T07:45:08.596Z,1018.05
2022-10-07T07:55:08.625Z,1018.06
2022-10-07T08:05:08.665Z,1017.95
2022-10-07T08:15:08.547Z,1017.92
2022-10-07T08:25:08.677Z,1017.74
2022-10-07T08:35:08.844Z,1017.69
2022-10-07T08:45:08.814Z,1017.56
2022-10-07T08:55:08.844Z,1017.44
2022-10-07T09:05:09.035Z,1017.29
2022-10-07T09:15:08.817Z,1017.19
2022-10-07T09:25:11.281Z,1017.14
2022-10-07T09:35:08.715Z,1016.91
2022-10-07T09:45:09.910Z,1016.84
2022-10-07T09:55:08.915Z,1016.78
2022-10-07T10:05:08.660Z,1016.59
2022-10-07T10:15:08.676Z,1016.50
2022-10-07T10:25:08.975Z,1016.40
2022-10-07T10:35:08.724Z,1016.24
2022-10-07T10:45:08.778Z,1016.03
2022-10-07T10:55:08.834Z,1015.91
2022-10-07T11:05:08.794Z,1015.77
2022-10-07T11:15:08.993Z,1015.57
2022-10-07T11:25:08.782Z,1015.43
2022-10-07T11:35:08.883Z,1015.11
2022-10-07T11:45:08.851Z,1015.08
2022-10-07T11:55:08.944Z,1014.74
2022-10-07T12:05:09.113Z,1014.59
2022-10-07T12:15:08.856Z,1014.30
2022-10-07T12:25:11.147Z,1014.18
2022-10-07T12:35:09.083Z,1014.08
2022-10-07T12:45:08.925Z,1013.83
2022-10-07T12:55:09.023Z,1013.72
2022-10-07T13:05:08.988Z,1013.74
2022-10-07T13:15:08.911Z,1013.56
2022-10-07T13:25:09.226Z,1013.34
2022-10-07T13:35:08.927Z,1013.15
2022-10-07T13:45:08.925Z,1013.03
2022-10-07T13:55:09.005Z,1013.04
2022-10-07T14:05:09.120Z,1012.75
2022-10-07T14:15:09.062Z,1012.56
2022-10-07T14:25:09.161Z,1012.56
2022-10-07T14:35:09.053Z,1012.34
2022-10-07T14:45:09.190Z,1012.18
2022-10-07T14:55:09.152Z,1012.07
2022-10-07T15:05:09.246Z,1011.96
2022-10-07T15:15:09.225Z,1011.84
2022-10-07T15:25:09.155Z,1011.94
2022-10-07T15:35:09.287Z,1011.79
2022-10-07T15:45:09.192Z,1011.77
2022-10-07T15:55:09.253Z,1011.64
2022-10-07T16:05:09.211Z,1011.57
2022-10-07T16:15:09.417Z,1011.54
2022-10-07T16:25:09.236Z,1011.60
2022-10-07T16:35:09.295Z,1011.48
2022-10-07T16:45:09.364Z,1011.53
2022-10-07T16:55:09.315Z,1011.50
2022-10-07T17:05:09.348Z,1011.48
2022-10-07T17:15:09.235Z,1011.41
2022-10-07T17:25:09.342Z,1011.27
2022-10-07T17:35:09.407Z,1011.30
2022-10-07T17:45:09.356Z,1011.37
2022-10-07T17:55:09.304Z,1011.17
2022-10-07T18:05:09.443Z,1011.25
2022-10-07T18:15:09.351Z,1011.28
2022-10-07T18:25:09.342Z,1011.29
2022-10-07T18:35:09.322Z,1011.25
2022-10-07T18:45:09.334Z,1011.11
2022-10-07T18:55:09.494Z,1011.08
2022-10-07T19:05:09.941Z,1011.00
2022-10-07T19:15:09.771Z,1010.91
